sensor_id;sensor_type;location;lat;lon;timestamp;P1;durP1;ratioP1;P2;durP2;ratioP2
25191;SDS011;13143;50.924;5.320;2023-03-22T00:00:33;13.48;;;8.48;;
25191;SDS011;13143;50.924;5.320;2023-03-22T00:03:00;17.05;;;8.32;;
25191;SDS011;13143;50.924;5.320;2023-03-22T00:05:26;11.20;;;7.75;;
25191;SDS011;13143;50.924;5.320;2023-03-22T00:07:54;15.18;;;7.72;;
25191;SDS011;13143;50.924;5.320;2023-03-22T00:10:25;11.02;;;7.57;;
25191;SDS011;13143;50.924;5.320;2023-03-22T00:12:53;10.65;;;8.20;;
25191;SDS011;13143;50.924;5.320;2023-03-22T00:15:19;16.20;;;8.52;;
25191;SDS011;13143;50.924;5.320;2023-03-22T00:17:46;15.00;;;8.23;;
25191;SDS011;13143;50.924;5.320;2023-03-22T00:20:14;12.68;;;8.02;;
25191;SDS011;13143;50.924;5.320;2023-03-22T00:22:41;16.00;;;8.55;;
25191;SDS011;13143;50.924;5.320;2023-03-22T00:25:07;16.77;;;8.40;;
25191;SDS011;13143;50.924;5.320;2023-03-22T00:27:33;10.88;;;7.63;;
25191;SDS011;13143;50.924;5.320;2023-03-22T00:29:59;12.07;;;7.30;;
25191;SDS011;13143;50.924;5.320;2023-03-22T00:32:25;15.90;;;7.78;;
25191;SDS011;13143;50.924;5.320;2023-03-22T00:34:51;11.50;;;7.72;;
25191;SDS011;13143;50.924;5.320;2023-03-22T00:37:16;11.75;;;7.13;;
25191;SDS011;13143;50.924;5.320;2023-03-22T00:39:42;15.98;;;6.97;;
25191;SDS011;13143;50.924;5.320;2023-03-22T00:42:08;14.10;;;7.32;;
25191;SDS011;13143;50.924;5.320;2023-03-22T00:44:35;11.73;;;7.35;;
25191;SDS011;13143;50.924;5.320;2023-03-22T00:47:01;14.10;;;6.97;;
25191;SDS011;13143;50.924;5.320;2023-03-22T00:49:27;11.98;;;7.03;;
25191;SDS011;13143;50.924;5.320;2023-03-22T00:51:54;14.73;;;7.03;;
25191;SDS011;13143;50.924;5.320;2023-03-22T00:54:19;12.20;;;6.78;;
25191;SDS011;13143;50.924;5.320;2023-03-22T00:56:45;10.77;;;7.03;;
25191;SDS011;13143;50.924;5.320;2023-03-22T00:59:14;10.73;;;6.00;;
25191;SDS011;13143;50.924;5.320;2023-03-22T01:01:40;10.80;;;6.53;;
25191;SDS011;13143;50.924;5.320;2023-03-22T01:04:06;13.02;;;6.47;;
25191;SDS011;13143;50.924;5.320;2023-03-22T01:06:32;12.00;;;6.35;;
25191;SDS011;13143;50.924;5.320;2023-03-22T01:08:58;9.55;;;6.03;;
25191;SDS011;13143;50.924;5.320;2023-03-22T01:11:25;15.02;;;6.57;;
25191;SDS011;13143;50.924;5.320;2023-03-22T01:13:51;9.20;;;6.00;;
25191;SDS011;13143;50.924;5.320;2023-03-22T01:16:18;13.23;;;6.07;;
25191;SDS011;13143;50.924;5.320;2023-03-22T01:18:45;9.88;;;5.70;;
25191;SDS011;13143;50.924;5.320;2023-03-22T01:21:10;12.77;;;6.53;;
25191;SDS011;13143;50.924;5.320;2023-03-22T01:23:36;10.50;;;6.20;;
25191;SDS011;13143;50.924;5.320;2023-03-22T01:26:02;10.32;;;5.38;;
25191;SDS011;13143;50.924;5.320;2023-03-22T01:28:29;9.52;;;5.93;;
25191;SDS011;13143;50.924;5.320;2023-03-22T01:30:55;11.60;;;5.10;;
25191;SDS011;13143;50.924;5.320;2023-03-22T01:33:24;8.48;;;5.35;;
25191;SDS011;13143;50.924;5.320;2023-03-22T01:35:50;10.35;;;5.25;;
25191;SDS011;13143;50.924;5.320;2023-03-22T01:38:15;9.45;;;5.22;;
25191;SDS011;13143;50.924;5.320;2023-03-22T01:40:41;8.60;;;5.30;;
25191;SDS011;13143;50.924;5.320;2023-03-22T01:43:13;15.77;;;5.53;;
25191;SDS011;13143;50.924;5.320;2023-03-22T01:45:47;11.20;;;5.88;;
25191;SDS011;13143;50.924;5.320;2023-03-22T01:48:18;11.15;;;5.82;;
25191;SDS011;13143;50.924;5.320;2023-03-22T01:50:57;9.93;;;5.70;;
25191;SDS011;13143;50.924;5.320;2023-03-22T01:53:27;11.13;;;6.22;;
25191;SDS011;13143;50.924;5.320;2023-03-22T01:56:00;7.15;;;5.18;;
25191;SDS011;13143;50.924;5.320;2023-03-22T01:58:26;10.43;;;6.28;;
25191;SDS011;13143;50.924;5.320;2023-03-22T02:00:52;7.97;;;4.80;;
25191;SDS011;13143;50.924;5.320;2023-03-22T02:03:28;11.50;;;5.47;;
25191;SDS011;13143;50.924;5.320;2023-03-22T02:06:06;11.63;;;4.57;;
25191;SDS011;13143;50.924;5.320;2023-03-22T02:08:32;13.35;;;5.03;;
25191;SDS011;13143;50.924;5.320;2023-03-22T02:10:58;9.80;;;4.70;;
25191;SDS011;13143;50.924;5.320;2023-03-22T02:13:28;10.40;;;4.45;;
25191;SDS011;13143;50.924;5.320;2023-03-22T02:16:25;8.50;;;4.75;;
25191;SDS011;13143;50.924;5.320;2023-03-22T02:27:49;8.68;;;3.90;;
25191;SDS011;13143;50.924;5.320;2023-03-22T02:52:39;8.45;;;4.28;;
25191;SDS011;13143;50.924;5.320;2023-03-22T02:55:10;9.70;;;4.25;;
25191;SDS011;13143;50.924;5.320;2023-03-22T02:58:18;7.45;;;4.35;;
25191;SDS011;13143;50.924;5.320;2023-03-22T03:00:48;11.05;;;4.50;;
25191;SDS011;13143;50.924;5.320;2023-03-22T03:03:17;10.10;;;4.20;;
25191;SDS011;13143;50.924;5.320;2023-03-22T03:05:49;18.52;;;5.03;;
25191;SDS011;13143;50.924;5.320;2023-03-22T03:08:19;11.77;;;4.60;;
25191;SDS011;13143;50.924;5.320;2023-03-22T03:10:46;9.70;;;5.00;;
25191;SDS011;13143;50.924;5.320;2023-03-22T03:13:13;10.63;;;4.68;;
25191;SDS011;13143;50.924;5.320;2023-03-22T03:15:41;12.90;;;4.95;;
25191;SDS011;13143;50.924;5.320;2023-03-22T03:18:18;11.13;;;5.40;;
25191;SDS011;13143;50.924;5.320;2023-03-22T03:26:28;9.98;;;4.80;;
25191;SDS011;13143;50.924;5.320;2023-03-22T03:29:02;12.15;;;5.18;;
25191;SDS011;13143;50.924;5.320;2023-03-22T03:31:49;11.95;;;4.90;;
25191;SDS011;13143;50.924;5.320;2023-03-22T03:34:26;10.52;;;5.03;;
25191;SDS011;13143;50.924;5.320;2023-03-22T03:37:05;11.93;;;4.70;;
25191;SDS011;13143;50.924;5.320;2023-03-22T03:39:43;12.10;;;4.82;;
25191;SDS011;13143;50.924;5.320;2023-03-22T03:44:41;10.27;;;4.30;;
25191;SDS011;13143;50.924;5.320;2023-03-22T03:47:08;8.57;;;4.03;;
25191;SDS011;13143;50.924;5.320;2023-03-22T03:49:35;7.28;;;4.15;;
25191;SDS011;13143;50.924;5.320;2023-03-22T03:52:02;12.73;;;4.50;;
25191;SDS011;13143;50.924;5.320;2023-03-22T03:54:28;11.52;;;4.13;;
25191;SDS011;13143;50.924;5.320;2023-03-22T03:56:54;12.13;;;4.50;;
25191;SDS011;13143;50.924;5.320;2023-03-22T03:59:20;7.95;;;4.10;;
25191;SDS011;13143;50.924;5.320;2023-03-22T04:01:46;8.48;;;3.88;;
25191;SDS011;13143;50.924;5.320;2023-03-22T04:04:16;8.73;;;4.05;;
25191;SDS011;13143;50.924;5.320;2023-03-22T04:06:53;8.60;;;3.90;;
25191;SDS011;13143;50.924;5.320;2023-03-22T04:09:27;10.57;;;4.57;;
25191;SDS011;13143;50.924;5.320;2023-03-22T04:11:55;9.13;;;3.58;;
25191;SDS011;13143;50.924;5.320;2023-03-22T04:14:21;7.95;;;3.70;;
25191;SDS011;13143;50.924;5.320;2023-03-22T04:16:48;13.95;;;4.50;;
25191;SDS011;13143;50.924;5.320;2023-03-22T04:19:14;10.77;;;4.28;;
25191;SDS011;13143;50.924;5.320;2023-03-22T04:21:40;10.82;;;3.92;;
25191;SDS011;13143;50.924;5.320;2023-03-22T04:24:06;15.60;;;4.95;;
25191;SDS011;13143;50.924;5.320;2023-03-22T04:26:32;8.25;;;3.75;;
25191;SDS011;13143;50.924;5.320;2023-03-22T04:28:58;11.55;;;4.53;;
25191;SDS011;13143;50.924;5.320;2023-03-22T04:31:26;11.88;;;4.00;;
25191;SDS011;13143;50.924;5.320;2023-03-22T04:33:53;8.13;;;3.63;;
25191;SDS011;13143;50.924;5.320;2023-03-22T04:36:22;8.93;;;3.80;;
25191;SDS011;13143;50.924;5.320;2023-03-22T04:38:49;10.77;;;3.88;;
25191;SDS011;13143;50.924;5.320;2023-03-22T04:41:15;13.07;;;3.90;;
25191;SDS011;13143;50.924;5.320;2023-03-22T04:43:42;11.45;;;3.67;;
25191;SDS011;13143;50.924;5.320;2023-03-22T04:46:11;9.02;;;4.15;;
25191;SDS011;13143;50.924;5.320;2023-03-22T04:48:40;9.00;;;3.28;;
25191;SDS011;13143;50.924;5.320;2023-03-22T04:51:07;11.18;;;4.25;;
25191;SDS011;13143;50.924;5.320;2023-03-22T04:53:34;11.23;;;4.00;;
25191;SDS011;13143;50.924;5.320;2023-03-22T04:56:05;9.32;;;4.07;;
25191;SDS011;13143;50.924;5.320;2023-03-22T04:58:33;9.93;;;4.38;;
25191;SDS011;13143;50.924;5.320;2023-03-22T05:01:00;12.15;;;4.38;;
25191;SDS011;13143;50.924;5.320;2023-03-22T05:03:26;11.02;;;4.20;;
25191;SDS011;13143;50.924;5.320;2023-03-22T05:05:52;9.95;;;4.40;;
25191;SDS011;13143;50.924;5.320;2023-03-22T05:08:22;7.72;;;3.88;;
25191;SDS011;13143;50.924;5.320;2023-03-22T05:10:49;11.95;;;4.57;;
25191;SDS011;13143;50.924;5.320;2023-03-22T05:13:18;13.23;;;4.05;;
25191;SDS011;13143;50.924;5.320;2023-03-22T05:15:44;12.48;;;4.32;;
25191;SDS011;13143;50.924;5.320;2023-03-22T05:18:11;10.75;;;4.55;;
25191;SDS011;13143;50.924;5.320;2023-03-22T05:20:40;10.73;;;4.05;;
25191;SDS011;13143;50.924;5.320;2023-03-22T05:23:06;11.52;;;3.70;;
25191;SDS011;13143;50.924;5.320;2023-03-22T05:25:34;16.30;;;4.13;;
25191;SDS011;13143;50.924;5.320;2023-03-22T05:28:00;15.07;;;4.70;;
25191;SDS011;13143;50.924;5.320;2023-03-22T05:30:27;9.75;;;4.32;;
25191;SDS011;13143;50.924;5.320;2023-03-22T05:32:59;11.05;;;4.07;;
25191;SDS011;13143;50.924;5.320;2023-03-22T05:35:28;17.83;;;4.47;;
25191;SDS011;13143;50.924;5.320;2023-03-22T05:37:55;11.80;;;4.18;;
25191;SDS011;13143;50.924;5.320;2023-03-22T05:40:22;10.60;;;3.92;;
25191;SDS011;13143;50.924;5.320;2023-03-22T05:42:48;15.02;;;4.25;;
25191;SDS011;13143;50.924;5.320;2023-03-22T05:45:13;12.50;;;3.47;;
25191;SDS011;13143;50.924;5.320;2023-03-22T05:47:39;13.25;;;3.88;;
25191;SDS011;13143;50.924;5.320;2023-03-22T05:50:06;14.02;;;4.47;;
25191;SDS011;13143;50.924;5.320;2023-03-22T05:52:33;15.02;;;4.07;;
25191;SDS011;13143;50.924;5.320;2023-03-22T05:54:59;14.52;;;4.13;;
25191;SDS011;13143;50.924;5.320;2023-03-22T05:57:25;12.23;;;5.00;;
25191;SDS011;13143;50.924;5.320;2023-03-22T05:59:51;11.60;;;4.05;;
25191;SDS011;13143;50.924;5.320;2023-03-22T06:02:18;11.27;;;4.18;;
25191;SDS011;13143;50.924;5.320;2023-03-22T06:04:45;12.77;;;4.72;;
25191;SDS011;13143;50.924;5.320;2023-03-22T06:07:11;11.10;;;4.20;;
25191;SDS011;13143;50.924;5.320;2023-03-22T06:09:37;15.60;;;4.38;;
25191;SDS011;13143;50.924;5.320;2023-03-22T06:12:03;12.77;;;3.92;;
25191;SDS011;13143;50.924;5.320;2023-03-22T06:14:29;12.07;;;3.75;;
25191;SDS011;13143;50.924;5.320;2023-03-22T06:16:55;9.82;;;3.30;;
25191;SDS011;13143;50.924;5.320;2023-03-22T06:19:20;11.48;;;3.97;;
25191;SDS011;13143;50.924;5.320;2023-03-22T06:21:46;15.07;;;4.18;;
25191;SDS011;13143;50.924;5.320;2023-03-22T06:24:12;10.80;;;3.97;;
25191;SDS011;13143;50.924;5.320;2023-03-22T06:26:38;12.27;;;4.13;;
25191;SDS011;13143;50.924;5.320;2023-03-22T06:29:03;14.45;;;4.20;;
25191;SDS011;13143;50.924;5.320;2023-03-22T06:31:29;13.15;;;3.92;;
25191;SDS011;13143;50.924;5.320;2023-03-22T06:33:54;10.57;;;3.42;;
25191;SDS011;13143;50.924;5.320;2023-03-22T06:36:20;15.90;;;3.88;;
25191;SDS011;13143;50.924;5.320;2023-03-22T06:38:46;13.38;;;4.10;;
25191;SDS011;13143;50.924;5.320;2023-03-22T06:41:11;13.43;;;3.67;;
25191;SDS011;13143;50.924;5.320;2023-03-22T06:43:37;10.57;;;3.70;;
25191;SDS011;13143;50.924;5.320;2023-03-22T06:46:03;10.88;;;3.50;;
25191;SDS011;13143;50.924;5.320;2023-03-22T06:48:29;11.57;;;3.53;;
25191;SDS011;13143;50.924;5.320;2023-03-22T06:50:54;15.30;;;3.90;;
25191;SDS011;13143;50.924;5.320;2023-03-22T06:53:20;12.50;;;3.80;;
25191;SDS011;13143;50.924;5.320;2023-03-22T06:55:46;13.85;;;4.30;;
25191;SDS011;13143;50.924;5.320;2023-03-22T06:58:12;21.65;;;4.47;;
25191;SDS011;13143;50.924;5.320;2023-03-22T07:00:37;11.32;;;3.10;;
25191;SDS011;13143;50.924;5.320;2023-03-22T07:03:03;9.02;;;3.25;;
25191;SDS011;13143;50.924;5.320;2023-03-22T07:05:29;11.02;;;3.28;;
25191;SDS011;13143;50.924;5.320;2023-03-22T07:07:55;21.83;;;3.50;;
25191;SDS011;13143;50.924;5.320;2023-03-22T07:10:21;6.97;;;3.00;;
25191;SDS011;13143;50.924;5.320;2023-03-22T07:12:46;15.45;;;3.13;;
25191;SDS011;13143;50.924;5.320;2023-03-22T07:15:12;15.05;;;3.70;;
25191;SDS011;13143;50.924;5.320;2023-03-22T07:17:38;13.80;;;3.63;;
25191;SDS011;13143;50.924;5.320;2023-03-22T07:20:04;21.77;;;3.90;;
25191;SDS011;13143;50.924;5.320;2023-03-22T07:22:30;16.85;;;3.90;;
25191;SDS011;13143;50.924;5.320;2023-03-22T07:24:56;14.35;;;3.42;;
25191;SDS011;13143;50.924;5.320;2023-03-22T07:27:22;9.65;;;2.83;;
25191;SDS011;13143;50.924;5.320;2023-03-22T07:29:47;17.08;;;3.67;;
25191;SDS011;13143;50.924;5.320;2023-03-22T07:32:13;17.55;;;2.90;;
25191;SDS011;13143;50.924;5.320;2023-03-22T07:34:38;16.67;;;3.67;;
25191;SDS011;13143;50.924;5.320;2023-03-22T07:37:04;12.10;;;3.03;;
25191;SDS011;13143;50.924;5.320;2023-03-22T07:39:32;9.43;;;2.90;;
25191;SDS011;13143;50.924;5.320;2023-03-22T07:41:58;12.82;;;3.47;;
25191;SDS011;13143;50.924;5.320;2023-03-22T07:44:23;9.60;;;3.50;;
25191;SDS011;13143;50.924;5.320;2023-03-22T07:46:49;13.70;;;3.20;;
25191;SDS011;13143;50.924;5.320;2023-03-22T07:49:16;12.68;;;2.97;;
25191;SDS011;13143;50.924;5.320;2023-03-22T07:51:42;16.45;;;3.70;;
25191;SDS011;13143;50.924;5.320;2023-03-22T07:54:08;14.88;;;3.40;;
25191;SDS011;13143;50.924;5.320;2023-03-22T07:56:34;18.95;;;3.53;;
25191;SDS011;13143;50.924;5.320;2023-03-22T07:59:00;12.05;;;3.13;;
25191;SDS011;13143;50.924;5.320;2023-03-22T08:01:26;18.58;;;3.92;;
25191;SDS011;13143;50.924;5.320;2023-03-22T08:03:51;12.48;;;2.97;;
25191;SDS011;13143;50.924;5.320;2023-03-22T08:06:17;17.20;;;4.32;;
25191;SDS011;13143;50.924;5.320;2023-03-22T08:08:45;15.18;;;3.15;;
25191;SDS011;13143;50.924;5.320;2023-03-22T08:11:11;11.45;;;2.75;;
25191;SDS011;13143;50.924;5.320;2023-03-22T08:13:37;20.38;;;3.15;;
25191;SDS011;13143;50.924;5.320;2023-03-22T08:16:03;16.92;;;4.25;;
25191;SDS011;13143;50.924;5.320;2023-03-22T08:18:29;14.43;;;3.30;;
25191;SDS011;13143;50.924;5.320;2023-03-22T08:20:56;20.67;;;3.08;;
25191;SDS011;13143;50.924;5.320;2023-03-22T08:23:24;12.27;;;2.70;;
25191;SDS011;13143;50.924;5.320;2023-03-22T08:25:50;10.07;;;2.50;;
25191;SDS011;13143;50.924;5.320;2023-03-22T08:28:16;8.95;;;2.45;;
25191;SDS011;13143;50.924;5.320;2023-03-22T08:30:43;10.05;;;2.88;;
25191;SDS011;13143;50.924;5.320;2023-03-22T08:33:10;12.68;;;2.33;;
25191;SDS011;13143;50.924;5.320;2023-03-22T08:35:36;8.05;;;1.92;;
25191;SDS011;13143;50.924;5.320;2023-03-22T08:38:02;14.93;;;2.55;;
25191;SDS011;13143;50.924;5.320;2023-03-22T08:40:28;12.38;;;2.53;;
25191;SDS011;13143;50.924;5.320;2023-03-22T08:42:53;11.15;;;2.20;;
25191;SDS011;13143;50.924;5.320;2023-03-22T08:45:19;12.93;;;2.30;;
25191;SDS011;13143;50.924;5.320;2023-03-22T08:47:45;9.65;;;2.38;;
25191;SDS011;13143;50.924;5.320;2023-03-22T08:50:11;13.65;;;2.47;;
25191;SDS011;13143;50.924;5.320;2023-03-22T08:52:37;16.42;;;2.30;;
25191;SDS011;13143;50.924;5.320;2023-03-22T08:55:04;11.77;;;2.58;;
25191;SDS011;13143;50.924;5.320;2023-03-22T08:57:31;10.25;;;2.53;;
25191;SDS011;13143;50.924;5.320;2023-03-22T08:59:56;16.48;;;2.42;;
25191;SDS011;13143;50.924;5.320;2023-03-22T09:02:22;7.93;;;1.90;;
25191;SDS011;13143;50.924;5.320;2023-03-22T09:04:49;10.95;;;2.83;;
25191;SDS011;13143;50.924;5.320;2023-03-22T09:07:14;14.63;;;2.95;;
25191;SDS011;13143;50.924;5.320;2023-03-22T09:09:41;9.38;;;2.10;;
25191;SDS011;13143;50.924;5.320;2023-03-22T09:12:07;13.95;;;2.47;;
25191;SDS011;13143;50.924;5.320;2023-03-22T09:14:33;15.10;;;2.78;;
25191;SDS011;13143;50.924;5.320;2023-03-22T09:17:00;8.85;;;2.30;;
25191;SDS011;13143;50.924;5.320;2023-03-22T09:19:26;10.43;;;2.22;;
25191;SDS011;13143;50.924;5.320;2023-03-22T09:21:52;15.10;;;2.20;;
25191;SDS011;13143;50.924;5.320;2023-03-22T09:24:17;12.93;;;2.70;;
25191;SDS011;13143;50.924;5.320;2023-03-22T09:26:43;10.35;;;1.90;;
25191;SDS011;13143;50.924;5.320;2023-03-22T09:29:10;14.40;;;2.60;;
25191;SDS011;13143;50.924;5.320;2023-03-22T09:31:36;16.52;;;2.28;;
25191;SDS011;13143;50.924;5.320;2023-03-22T09:34:02;15.80;;;2.65;;
25191;SDS011;13143;50.924;5.320;2023-03-22T09:36:28;8.70;;;1.92;;
25191;SDS011;13143;50.924;5.320;2023-03-22T09:38:53;13.13;;;2.65;;
25191;SDS011;13143;50.924;5.320;2023-03-22T09:41:25;13.98;;;2.42;;
25191;SDS011;13143;50.924;5.320;2023-03-22T09:44:00;12.90;;;2.28;;
25191;SDS011;13143;50.924;5.320;2023-03-22T09:46:29;12.30;;;2.03;;
25191;SDS011;13143;50.924;5.320;2023-03-22T09:49:00;10.45;;;2.67;;
25191;SDS011;13143;50.924;5.320;2023-03-22T09:51:46;12.38;;;2.50;;
25191;SDS011;13143;50.924;5.320;2023-03-22T09:57:03;9.65;;;1.88;;
25191;SDS011;13143;50.924;5.320;2023-03-22T10:02:09;12.88;;;2.55;;
25191;SDS011;13143;50.924;5.320;2023-03-22T10:10:12;13.00;;;1.83;;
25191;SDS011;13143;50.924;5.320;2023-03-22T10:12:58;13.63;;;2.45;;
25191;SDS011;13143;50.924;5.320;2023-03-22T10:18:12;15.93;;;2.20;;
25191;SDS011;13143;50.924;5.320;2023-03-22T10:20:45;11.18;;;1.70;;
25191;SDS011;13143;50.924;5.320;2023-03-22T10:23:25;12.65;;;2.25;;
25191;SDS011;13143;50.924;5.320;2023-03-22T10:26:44;12.45;;;2.20;;
25191;SDS011;13143;50.924;5.320;2023-03-22T10:29:08;15.02;;;2.55;;
25191;SDS011;13143;50.924;5.320;2023-03-22T10:31:38;8.80;;;2.10;;
25191;SDS011;13143;50.924;5.320;2023-03-22T10:34:23;9.52;;;2.95;;
25191;SDS011;13143;50.924;5.320;2023-03-22T10:36:57;12.02;;;2.40;;
25191;SDS011;13143;50.924;5.320;2023-03-22T10:41:55;10.60;;;1.75;;
25191;SDS011;13143;50.924;5.320;2023-03-22T10:44:25;16.38;;;2.75;;
25191;SDS011;13143;50.924;5.320;2023-03-22T10:46:54;12.00;;;2.53;;
25191;SDS011;13143;50.924;5.320;2023-03-22T10:49:28;11.20;;;2.42;;
25191;SDS011;13143;50.924;5.320;2023-03-22T10:52:02;11.30;;;2.28;;
25191;SDS011;13143;50.924;5.320;2023-03-22T10:54:37;8.63;;;2.03;;
25191;SDS011;13143;50.924;5.320;2023-03-22T10:57:02;11.18;;;1.80;;
25191;SDS011;13143;50.924;5.320;2023-03-22T10:59:47;9.40;;;1.77;;
25191;SDS011;13143;50.924;5.320;2023-03-22T11:02:23;9.57;;;1.60;;
25191;SDS011;13143;50.924;5.320;2023-03-22T11:04:55;11.55;;;2.28;;
25191;SDS011;13143;50.924;5.320;2023-03-22T11:07:30;15.75;;;2.28;;
25191;SDS011;13143;50.924;5.320;2023-03-22T11:12:33;11.00;;;1.73;;
25191;SDS011;13143;50.924;5.320;2023-03-22T11:17:50;11.38;;;1.85;;
25191;SDS011;13143;50.924;5.320;2023-03-22T11:20:17;12.30;;;2.05;;
25191;SDS011;13143;50.924;5.320;2023-03-22T11:22:44;8.65;;;1.90;;
25191;SDS011;13143;50.924;5.320;2023-03-22T11:25:24;6.10;;;1.80;;
25191;SDS011;13143;50.924;5.320;2023-03-22T11:30:41;9.15;;;1.70;;
25191;SDS011;13143;50.924;5.320;2023-03-22T11:33:29;12.18;;;2.08;;
25191;SDS011;13143;50.924;5.320;2023-03-22T11:35:56;10.00;;;1.90;;
25191;SDS011;13143;50.924;5.320;2023-03-22T11:40:59;10.15;;;1.95;;
25191;SDS011;13143;50.924;5.320;2023-03-22T11:43:30;7.75;;;1.65;;
25191;SDS011;13143;50.924;5.320;2023-03-22T11:45:59;7.03;;;1.95;;
25191;SDS011;13143;50.924;5.320;2023-03-22T11:48:28;6.05;;;1.73;;
25191;SDS011;13143;50.924;5.320;2023-03-22T11:51:04;8.05;;;1.75;;
25191;SDS011;13143;50.924;5.320;2023-03-22T11:53:33;8.70;;;1.92;;
25191;SDS011;13143;50.924;5.320;2023-03-22T11:56:02;7.22;;;1.85;;
25191;SDS011;13143;50.924;5.320;2023-03-22T12:01:06;8.32;;;1.73;;
25191;SDS011;13143;50.924;5.320;2023-03-22T12:03:39;10.52;;;2.90;;
25191;SDS011;13143;50.924;5.320;2023-03-22T12:06:40;7.57;;;1.98;;
25191;SDS011;13143;50.924;5.320;2023-03-22T12:09:43;11.77;;;2.10;;
25191;SDS011;13143;50.924;5.320;2023-03-22T12:17:00;8.73;;;2.20;;
25191;SDS011;13143;50.924;5.320;2023-03-22T12:22:17;11.50;;;2.33;;
25191;SDS011;13143;50.924;5.320;2023-03-22T12:24:48;10.95;;;2.20;;
25191;SDS011;13143;50.924;5.320;2023-03-22T12:29:53;12.23;;;1.88;;
25191;SDS011;13143;50.924;5.320;2023-03-22T12:32:24;10.02;;;2.33;;
25191;SDS011;13143;50.924;5.320;2023-03-22T12:34:54;7.80;;;2.22;;
25191;SDS011;13143;50.924;5.320;2023-03-22T12:37:25;6.70;;;2.03;;
25191;SDS011;13143;50.924;5.320;2023-03-22T12:39:59;7.47;;;2.17;;
25191;SDS011;13143;50.924;5.320;2023-03-22T12:45:57;8.32;;;2.10;;
25191;SDS011;13143;50.924;5.320;2023-03-22T12:51:00;8.25;;;2.17;;
25191;SDS011;13143;50.924;5.320;2023-03-22T12:53:32;8.13;;;2.60;;
25191;SDS011;13143;50.924;5.320;2023-03-22T12:56:37;7.75;;;2.30;;
25191;SDS011;13143;50.924;5.320;2023-03-22T12:59:09;6.80;;;2.38;;
25191;SDS011;13143;50.924;5.320;2023-03-22T13:01:50;11.13;;;2.17;;
25191;SDS011;13143;50.924;5.320;2023-03-22T13:07:13;10.82;;;2.20;;
25191;SDS011;13143;50.924;5.320;2023-03-22T13:09:45;10.80;;;2.28;;
25191;SDS011;13143;50.924;5.320;2023-03-22T13:17:14;8.43;;;1.90;;
25191;SDS011;13143;50.924;5.320;2023-03-22T13:30:01;5.55;;;2.00;;
25191;SDS011;13143;50.924;5.320;2023-03-22T13:32:32;9.90;;;2.35;;
25191;SDS011;13143;50.924;5.320;2023-03-22T13:34:58;4.40;;;1.60;;
25191;SDS011;13143;50.924;5.320;2023-03-22T13:43:09;9.25;;;2.40;;
25191;SDS011;13143;50.924;5.320;2023-03-22T13:51:15;8.13;;;2.35;;
25191;SDS011;13143;50.924;5.320;2023-03-22T13:53:55;12.65;;;2.45;;
25191;SDS011;13143;50.924;5.320;2023-03-22T13:59:09;5.82;;;2.00;;
25191;SDS011;13143;50.924;5.320;2023-03-22T14:01:36;6.68;;;2.10;;
25191;SDS011;13143;50.924;5.320;2023-03-22T14:05:08;9.77;;;2.70;;
25191;SDS011;13143;50.924;5.320;2023-03-22T14:09:48;9.15;;;1.98;;
25191;SDS011;13143;50.924;5.320;2023-03-22T14:12:24;5.63;;;1.88;;
25191;SDS011;13143;50.924;5.320;2023-03-22T14:14:56;8.55;;;2.00;;
25191;SDS011;13143;50.924;5.320;2023-03-22T14:20:18;7.68;;;2.20;;
25191;SDS011;13143;50.924;5.320;2023-03-22T14:22:47;9.70;;;2.25;;
25191;SDS011;13143;50.924;5.320;2023-03-22T14:25:17;7.80;;;1.88;;
25191;SDS011;13143;50.924;5.320;2023-03-22T14:27:44;11.98;;;2.15;;
25191;SDS011;13143;50.924;5.320;2023-03-22T14:32:51;11.13;;;2.53;;
25191;SDS011;13143;50.924;5.320;2023-03-22T14:35:45;9.52;;;2.40;;
25191;SDS011;13143;50.924;5.320;2023-03-22T14:38:30;4.32;;;1.80;;
25191;SDS011;13143;50.924;5.320;2023-03-22T14:41:31;11.10;;;2.50;;
25191;SDS011;13143;50.924;5.320;2023-03-22T14:43:58;8.30;;;2.10;;
25191;SDS011;13143;50.924;5.320;2023-03-22T14:46:33;7.22;;;2.00;;
25191;SDS011;13143;50.924;5.320;2023-03-22T14:49:00;11.93;;;2.53;;
25191;SDS011;13143;50.924;5.320;2023-03-22T14:51:29;7.72;;;2.08;;
25191;SDS011;13143;50.924;5.320;2023-03-22T14:53:56;6.82;;;2.35;;
25191;SDS011;13143;50.924;5.320;2023-03-22T14:56:32;5.97;;;1.75;;
25191;SDS011;13143;50.924;5.320;2023-03-22T14:59:03;5.80;;;1.98;;
25191;SDS011;13143;50.924;5.320;2023-03-22T15:01:38;7.03;;;2.00;;
25191;SDS011;13143;50.924;5.320;2023-03-22T15:04:07;10.10;;;2.10;;
25191;SDS011;13143;50.924;5.320;2023-03-22T15:06:45;7.65;;;2.17;;
25191;SDS011;13143;50.924;5.320;2023-03-22T15:09:13;5.97;;;1.73;;
25191;SDS011;13143;50.924;5.320;2023-03-22T15:11:43;12.30;;;2.10;;
25191;SDS011;13143;50.924;5.320;2023-03-22T15:14:10;9.02;;;2.10;;
25191;SDS011;13143;50.924;5.320;2023-03-22T15:16:37;7.32;;;1.83;;
25191;SDS011;13143;50.924;5.320;2023-03-22T15:19:05;10.27;;;2.33;;
25191;SDS011;13143;50.924;5.320;2023-03-22T15:21:37;9.38;;;2.00;;
25191;SDS011;13143;50.924;5.320;2023-03-22T15:24:12;8.55;;;2.17;;
25191;SDS011;13143;50.924;5.320;2023-03-22T15:26:51;8.75;;;2.65;;
25191;SDS011;13143;50.924;5.320;2023-03-22T15:29:19;7.05;;;1.92;;
25191;SDS011;13143;50.924;5.320;2023-03-22T15:31:50;9.02;;;2.15;;
25191;SDS011;13143;50.924;5.320;2023-03-22T15:34:19;4.00;;;1.83;;
25191;SDS011;13143;50.924;5.320;2023-03-22T15:36:49;7.22;;;1.90;;
25191;SDS011;13143;50.924;5.320;2023-03-22T15:39:22;9.23;;;2.20;;
25191;SDS011;13143;50.924;5.320;2023-03-22T15:41:51;5.95;;;2.33;;
25191;SDS011;13143;50.924;5.320;2023-03-22T15:44:27;11.95;;;2.28;;
25191;SDS011;13143;50.924;5.320;2023-03-22T15:51:52;8.13;;;1.90;;
25191;SDS011;13143;50.924;5.320;2023-03-22T15:54:20;9.48;;;2.20;;
25191;SDS011;13143;50.924;5.320;2023-03-22T15:56:52;7.75;;;1.60;;
25191;SDS011;13143;50.924;5.320;2023-03-22T16:01:49;5.43;;;1.90;;
25191;SDS011;13143;50.924;5.320;2023-03-22T16:04:17;7.80;;;2.42;;
25191;SDS011;13143;50.924;5.320;2023-03-22T16:06:45;10.00;;;2.38;;
25191;SDS011;13143;50.924;5.320;2023-03-22T16:09:11;12.80;;;2.45;;
25191;SDS011;13143;50.924;5.320;2023-03-22T16:11:36;8.55;;;2.35;;
25191;SDS011;13143;50.924;5.320;2023-03-22T16:14:02;7.75;;;2.22;;
25191;SDS011;13143;50.924;5.320;2023-03-22T16:16:28;6.57;;;2.13;;
25191;SDS011;13143;50.924;5.320;2023-03-22T16:18:54;12.27;;;2.17;;
25191;SDS011;13143;50.924;5.320;2023-03-22T16:21:24;8.75;;;2.40;;
25191;SDS011;13143;50.924;5.320;2023-03-22T16:23:54;8.35;;;2.13;;
25191;SDS011;13143;50.924;5.320;2023-03-22T16:26:19;6.18;;;1.90;;
25191;SDS011;13143;50.924;5.320;2023-03-22T16:28:45;9.30;;;2.15;;
25191;SDS011;13143;50.924;5.320;2023-03-22T16:31:12;11.23;;;1.77;;
25191;SDS011;13143;50.924;5.320;2023-03-22T16:33:39;8.63;;;2.30;;
25191;SDS011;13143;50.924;5.320;2023-03-22T16:36:05;6.97;;;2.30;;
25191;SDS011;13143;50.924;5.320;2023-03-22T16:38:33;10.55;;;2.20;;
25191;SDS011;13143;50.924;5.320;2023-03-22T16:40:59;6.78;;;2.30;;
25191;SDS011;13143;50.924;5.320;2023-03-22T16:43:25;9.30;;;2.42;;
25191;SDS011;13143;50.924;5.320;2023-03-22T16:45:51;7.57;;;2.10;;
25191;SDS011;13143;50.924;5.320;2023-03-22T16:48:17;10.00;;;2.13;;
25191;SDS011;13143;50.924;5.320;2023-03-22T16:50:43;11.52;;;2.53;;
25191;SDS011;13143;50.924;5.320;2023-03-22T16:53:12;8.45;;;2.40;;
25191;SDS011;13143;50.924;5.320;2023-03-22T16:55:42;8.57;;;2.05;;
25191;SDS011;13143;50.924;5.320;2023-03-22T16:58:08;9.93;;;2.55;;
25191;SDS011;13143;50.924;5.320;2023-03-22T17:00:34;11.25;;;2.72;;
25191;SDS011;13143;50.924;5.320;2023-03-22T17:03:01;8.93;;;2.08;;